sensor_id;sensor_type;location;lat;lon;timestamp;pressure;altitude;pressure_sealevel;temperature;humidity
34742;BME280;20968;42.696;23.360;2023-12-20T00:02:22;95616.38;;;3.10;81.04
34742;BME280;20968;42.696;23.360;2023-12-20T00:04:48;95612.81;;;3.13;80.69
34742;BME280;20968;42.696;23.360;2023-12-20T00:07:14;95611.19;;;3.15;81.10
34742;BME280;20968;42.696;23.360;2023-12-20T00:09:39;95607.28;;;3.16;80.42
34742;BME280;20968;42.696;23.360;2023-12-20T00:12:05;95608.81;;;3.17;79.99
34742;BME280;20968;42.696;23.360;2023-12-20T00:14:30;95610.44;;;3.15;79.91
34742;BME280;20968;42.696;23.360;2023-12-20T00:16:56;95611.75;;;3.07;79.83
34742;BME280;20968;42.696;23.360;2023-12-20T00:19:21;95606.41;;;2.84;79.17
34742;BME280;20968;42.696;23.360;2023-12-20T00:21:46;95606.59;;;2.74;79.57
34742;BME280;20968;42.696;23.360;2023-12-20T00:24:12;95605.56;;;2.68;79.31
34742;BME280;20968;42.696;23.360;2023-12-20T00:26:37;95601.16;;;2.54;79.58
34742;BME280;20968;42.696;23.360;2023-12-20T00:29:03;95592.63;;;2.52;79.12
34742;BME280;20968;42.696;23.360;2023-12-20T00:31:28;95591.06;;;2.32;79.02
34742;BME280;20968;42.696;23.360;2023-12-20T00:33:53;95585.19;;;2.14;79.45
34742;BME280;20968;42.696;23.360;2023-12-20T00:36:19;95585.81;;;2.22;79.56
34742;BME280;20968;42.696;23.360;2023-12-20T00:38:45;95584.75;;;2.38;77.94
34742;BME280;20968;42.696;23.360;2023-12-20T00:41:10;95578.38;;;2.26;77.38
34742;BME280;20968;42.696;23.360;2023-12-20T00:43:36;95574.25;;;2.18;77.58
34742;BME280;20968;42.696;23.360;2023-12-20T00:46:01;95573.03;;;1.99;77.75
34742;BME280;20968;42.696;23.360;2023-12-20T00:48:27;95571.47;;;1.75;77.98
34742;BME280;20968;42.696;23.360;2023-12-20T00:50:52;95570.41;;;1.69;78.52
34742;BME280;20968;42.696;23.360;2023-12-20T00:53:18;95562.72;;;1.64;78.35
34742;BME280;20968;42.696;23.360;2023-12-20T00:55:43;95570.66;;;1.52;78.81
34742;BME280;20968;42.696;23.360;2023-12-20T00:58:10;95563.84;;;1.44;79.09
34742;BME280;20968;42.696;23.360;2023-12-20T01:00:35;95564.06;;;1.53;78.89
34742;BME280;20968;42.696;23.360;2023-12-20T01:03:01;95562.84;;;1.57;78.84
34742;BME280;20968;42.696;23.360;2023-12-20T01:05:26;95559.19;;;1.67;78.38
34742;BME280;20968;42.696;23.360;2023-12-20T01:07:51;95551.81;;;1.68;78.20
34742;BME280;20968;42.696;23.360;2023-12-20T01:10:17;95553.34;;;1.69;78.59
34742;BME280;20968;42.696;23.360;2023-12-20T01:12:43;95552.53;;;1.72;78.39
34742;BME280;20968;42.696;23.360;2023-12-20T01:15:09;95549.00;;;1.75;78.06
34742;BME280;20968;42.696;23.360;2023-12-20T01:17:34;95545.47;;;1.78;78.07
34742;BME280;20968;42.696;23.360;2023-12-20T01:20:00;95539.09;;;1.88;77.40
34742;BME280;20968;42.696;23.360;2023-12-20T01:22:25;95538.66;;;1.66;78.53
34742;BME280;20968;42.696;23.360;2023-12-20T01:24:51;95537.06;;;1.69;78.32
34742;BME280;20968;42.696;23.360;2023-12-20T01:27:16;95527.75;;;1.70;78.63
34742;BME280;20968;42.696;23.360;2023-12-20T01:29:41;95520.16;;;1.61;78.91
34742;BME280;20968;42.696;23.360;2023-12-20T01:32:07;95521.84;;;1.75;78.80
34742;BME280;20968;42.696;23.360;2023-12-20T01:34:32;95518.69;;;1.57;78.28
34742;BME280;20968;42.696;23.360;2023-12-20T01:36:58;95516.22;;;1.66;78.12
34742;BME280;20968;42.696;23.360;2023-12-20T01:39:23;95516.91;;;1.70;78.20
34742;BME280;20968;42.696;23.360;2023-12-20T01:41:49;95500.25;;;1.45;77.68
34742;BME280;20968;42.696;23.360;2023-12-20T01:44:14;95504.94;;;1.45;77.90
34742;BME280;20968;42.696;23.360;2023-12-20T01:46:40;95496.19;;;1.56;77.23
34742;BME280;20968;42.696;23.360;2023-12-20T01:49:06;95499.28;;;1.58;77.18
34742;BME280;20968;42.696;23.360;2023-12-20T01:51:32;95498.34;;;1.46;77.15
34742;BME280;20968;42.696;23.360;2023-12-20T01:53:59;95498.50;;;1.35;77.22
34742;BME280;20968;42.696;23.360;2023-12-20T01:56:26;95490.19;;;1.46;76.85
34742;BME280;20968;42.696;23.360;2023-12-20T01:58:52;95500.47;;;1.31;76.00
34742;BME280;20968;42.696;23.360;2023-12-20T02:01:18;95489.63;;;1.31;76.15
34742;BME280;20968;42.696;23.360;2023-12-20T02:03:44;95485.13;;;0.98;76.56
34742;BME280;20968;42.696;23.360;2023-12-20T02:06:10;95483.31;;;0.88;77.37
34742;BME280;20968;42.696;23.360;2023-12-20T02:08:36;95474.22;;;1.02;78.19
34742;BME280;20968;42.696;23.360;2023-12-20T02:11:02;95475.56;;;0.90;77.92
34742;BME280;20968;42.696;23.360;2023-12-20T02:13:27;95477.53;;;0.86;78.28
34742;BME280;20968;42.696;23.360;2023-12-20T02:15:54;95467.56;;;0.80;79.13
34742;BME280;20968;42.696;23.360;2023-12-20T02:18:19;95471.16;;;0.74;78.99
34742;BME280;20968;42.696;23.360;2023-12-20T02:20:45;95468.34;;;0.80;78.67
34742;BME280;20968;42.696;23.360;2023-12-20T02:23:10;95462.19;;;0.76;78.63
34742;BME280;20968;42.696;23.360;2023-12-20T02:25:35;95460.97;;;0.51;79.85
34742;BME280;20968;42.696;23.360;2023-12-20T02:28:03;95455.53;;;0.81;79.62
34742;BME280;20968;42.696;23.360;2023-12-20T02:30:28;95458.63;;;0.83;78.76
34742;BME280;20968;42.696;23.360;2023-12-20T02:32:54;95448.50;;;0.87;79.38
34742;BME280;20968;42.696;23.360;2023-12-20T02:35:20;95453.88;;;0.90;79.38
34742;BME280;20968;42.696;23.360;2023-12-20T02:37:45;95445.59;;;0.75;79.23
34742;BME280;20968;42.696;23.360;2023-12-20T02:40:11;95438.69;;;0.96;79.20
34742;BME280;20968;42.696;23.360;2023-12-20T02:42:36;95440.44;;;0.83;79.74
34742;BME280;20968;42.696;23.360;2023-12-20T02:45:02;95439.91;;;0.92;79.51
34742;BME280;20968;42.696;23.360;2023-12-20T02:47:27;95433.75;;;0.88;79.54
34742;BME280;20968;42.696;23.360;2023-12-20T02:49:55;95439.56;;;0.90;79.99
34742;BME280;20968;42.696;23.360;2023-12-20T02:52:20;95439.44;;;0.97;79.47
34742;BME280;20968;42.696;23.360;2023-12-20T02:54:45;95438.38;;;0.91;79.61
34742;BME280;20968;42.696;23.360;2023-12-20T02:57:11;95449.28;;;0.87;78.73
34742;BME280;20968;42.696;23.360;2023-12-20T02:59:37;95437.41;;;0.78;79.20
34742;BME280;20968;42.696;23.360;2023-12-20T03:02:02;95438.75;;;0.93;78.87
34742;BME280;20968;42.696;23.360;2023-12-20T03:04:28;95441.75;;;0.98;79.25
34742;BME280;20968;42.696;23.360;2023-12-20T03:06:53;95435.94;;;1.00;79.69
34742;BME280;20968;42.696;23.360;2023-12-20T03:09:19;95429.66;;;1.03;79.22
34742;BME280;20968;42.696;23.360;2023-12-20T03:11:44;95438.09;;;1.08;79.57
34742;BME280;20968;42.696;23.360;2023-12-20T03:14:09;95434.28;;;1.06;79.28
34742;BME280;20968;42.696;23.360;2023-12-20T03:16:35;95432.69;;;1.08;79.51
34742;BME280;20968;42.696;23.360;2023-12-20T03:19:00;95436.69;;;1.00;79.85
34742;BME280;20968;42.696;23.360;2023-12-20T03:21:26;95424.19;;;1.06;80.27
34742;BME280;20968;42.696;23.360;2023-12-20T03:23:51;95428.81;;;1.09;80.28
34742;BME280;20968;42.696;23.360;2023-12-20T03:26:16;95417.84;;;1.16;80.37
34742;BME280;20968;42.696;23.360;2023-12-20T03:28:42;95425.41;;;1.28;79.20
34742;BME280;20968;42.696;23.360;2023-12-20T03:31:09;95418.44;;;1.27;79.69
34742;BME280;20968;42.696;23.360;2023-12-20T03:33:34;95423.03;;;1.30;79.71
34742;BME280;20968;42.696;23.360;2023-12-20T03:36:00;95424.44;;;1.38;79.21
34742;BME280;20968;42.696;23.360;2023-12-20T03:38:25;95419.25;;;1.24;79.23
34742;BME280;20968;42.696;23.360;2023-12-20T03:40:51;95420.78;;;1.25;79.57
34742;BME280;20968;42.696;23.360;2023-12-20T03:43:16;95410.50;;;1.17;79.78
34742;BME280;20968;42.696;23.360;2023-12-20T03:45:42;95412.31;;;1.23;80.36
34742;BME280;20968;42.696;23.360;2023-12-20T03:48:07;95412.31;;;1.23;79.75
34742;BME280;20968;42.696;23.360;2023-12-20T03:50:34;95415.69;;;1.31;79.55
34742;BME280;20968;42.696;23.360;2023-12-20T03:52:59;95417.72;;;1.23;78.68
34742;BME280;20968;42.696;23.360;2023-12-20T03:55:25;95411.19;;;1.21;79.28
34742;BME280;20968;42.696;23.360;2023-12-20T03:57:50;95406.38;;;1.09;78.97
34742;BME280;20968;42.696;23.360;2023-12-20T04:00:16;95401.00;;;1.05;79.52
34742;BME280;20968;42.696;23.360;2023-12-20T04:02:41;95405.88;;;1.14;79.45
34742;BME280;20968;42.696;23.360;2023-12-20T04:05:08;95402.41;;;1.13;78.89
34742;BME280;20968;42.696;23.360;2023-12-20T04:07:34;95395.16;;;1.07;79.62
34742;BME280;20968;42.696;23.360;2023-12-20T04:10:00;95393.19;;;1.07;79.52
34742;BME280;20968;42.696;23.360;2023-12-20T04:12:27;95399.09;;;1.02;79.49
34742;BME280;20968;42.696;23.360;2023-12-20T04:14:53;95393.19;;;1.07;79.07
34742;BME280;20968;42.696;23.360;2023-12-20T04:17:18;95390.03;;;1.12;79.29
34742;BME280;20968;42.696;23.360;2023-12-20T04:19:44;95383.91;;;1.08;78.87
34742;BME280;20968;42.696;23.360;2023-12-20T04:22:09;95394.75;;;1.08;78.86
34742;BME280;20968;42.696;23.360;2023-12-20T04:24:35;95386.03;;;0.97;79.45
34742;BME280;20968;42.696;23.360;2023-12-20T04:27:01;95378.94;;;0.80;79.67
34742;BME280;20968;42.696;23.360;2023-12-20T04:29:26;95380.28;;;0.69;79.42
34742;BME280;20968;42.696;23.360;2023-12-20T04:31:52;95380.41;;;0.85;79.78
34742;BME280;20968;42.696;23.360;2023-12-20T04:34:17;95374.06;;;0.69;79.44
34742;BME280;20968;42.696;23.360;2023-12-20T04:36:43;95359.63;;;0.52;80.41
34742;BME280;20968;42.696;23.360;2023-12-20T04:39:10;95363.66;;;0.67;79.61
34742;BME280;20968;42.696;23.360;2023-12-20T04:41:35;95365.13;;;0.72;79.74
34742;BME280;20968;42.696;23.360;2023-12-20T04:44:01;95373.63;;;0.74;79.31
34742;BME280;20968;42.696;23.360;2023-12-20T04:46:27;95368.06;;;0.58;80.57
34742;BME280;20968;42.696;23.360;2023-12-20T04:48:52;95365.41;;;0.54;80.18
34742;BME280;20968;42.696;23.360;2023-12-20T04:51:18;95365.91;;;0.72;79.38
34742;BME280;20968;42.696;23.360;2023-12-20T04:53:43;95359.34;;;0.70;79.89
34742;BME280;20968;42.696;23.360;2023-12-20T04:56:08;95351.81;;;0.58;80.31
34742;BME280;20968;42.696;23.360;2023-12-20T04:58:34;95352.50;;;0.62;79.99
34742;BME280;20968;42.696;23.360;2023-12-20T05:00:59;95364.94;;;0.59;79.45
34742;BME280;20968;42.696;23.360;2023-12-20T05:03:25;95359.25;;;0.50;80.21
34742;BME280;20968;42.696;23.360;2023-12-20T05:05:50;95354.56;;;0.54;79.92
34742;BME280;20968;42.696;23.360;2023-12-20T05:08:15;95354.00;;;0.66;80.04
34742;BME280;20968;42.696;23.360;2023-12-20T05:10:41;95356.06;;;0.59;80.44
34742;BME280;20968;42.696;23.360;2023-12-20T05:13:06;95355.91;;;0.69;79.66
34742;BME280;20968;42.696;23.360;2023-12-20T05:15:33;95350.16;;;0.64;78.63
34742;BME280;20968;42.696;23.360;2023-12-20T05:17:58;95356.06;;;0.59;79.92
34742;BME280;20968;42.696;23.360;2023-12-20T05:20:23;95343.31;;;0.56;80.34
34742;BME280;20968;42.696;23.360;2023-12-20T05:22:49;95345.22;;;0.59;80.36
34742;BME280;20968;42.696;23.360;2023-12-20T05:25:14;95338.22;;;0.61;79.97
34742;BME280;20968;42.696;23.360;2023-12-20T05:27:40;95344.28;;;0.69;80.72
34742;BME280;20968;42.696;23.360;2023-12-20T05:30:06;95341.53;;;0.72;80.73
34742;BME280;20968;42.696;23.360;2023-12-20T05:32:31;95339.34;;;0.64;80.44
34742;BME280;20968;42.696;23.360;2023-12-20T05:34:57;95332.72;;;0.42;80.88
34742;BME280;20968;42.696;23.360;2023-12-20T05:37:22;95331.59;;;0.39;81.15
34742;BME280;20968;42.696;23.360;2023-12-20T05:39:47;95331.06;;;0.48;81.48
34742;BME280;20968;42.696;23.360;2023-12-20T05:42:13;95328.13;;;0.62;80.78
34742;BME280;20968;42.696;23.360;2023-12-20T05:44:38;95329.34;;;0.61;80.16
34742;BME280;20968;42.696;23.360;2023-12-20T05:47:04;95332.75;;;0.65;80.54
34742;BME280;20968;42.696;23.360;2023-12-20T05:49:29;95325.63;;;0.74;80.64
34742;BME280;20968;42.696;23.360;2023-12-20T05:51:55;95327.63;;;0.70;79.46
34742;BME280;20968;42.696;23.360;2023-12-20T05:54:20;95325.56;;;0.77;79.57
34742;BME280;20968;42.696;23.360;2023-12-20T05:56:46;95321.63;;;0.82;79.62
34742;BME280;20968;42.696;23.360;2023-12-20T05:59:12;95318.63;;;0.76;79.58
34742;BME280;20968;42.696;23.360;2023-12-20T06:01:37;95321.31;;;0.76;79.94
34742;BME280;20968;42.696;23.360;2023-12-20T06:04:03;95312.25;;;0.86;79.98
34742;BME280;20968;42.696;23.360;2023-12-20T06:06:29;95308.03;;;0.85;80.01
34742;BME280;20968;42.696;23.360;2023-12-20T06:08:55;95302.31;;;0.80;80.11
34742;BME280;20968;42.696;23.360;2023-12-20T06:11:21;95312.09;;;0.74;81.34
34742;BME280;20968;42.696;23.360;2023-12-20T06:13:46;95307.78;;;0.76;81.31
34742;BME280;20968;42.696;23.360;2023-12-20T06:16:12;95316.22;;;0.82;81.62
34742;BME280;20968;42.696;23.360;2023-12-20T06:18:37;95309.06;;;0.91;81.54
34742;BME280;20968;42.696;23.360;2023-12-20T06:21:03;95313.75;;;0.91;81.52
34742;BME280;20968;42.696;23.360;2023-12-20T06:23:28;95313.69;;;0.94;80.93
34742;BME280;20968;42.696;23.360;2023-12-20T06:25:54;95316.09;;;0.89;81.50
34742;BME280;20968;42.696;23.360;2023-12-20T06:28:19;95307.44;;;0.97;81.69
34742;BME280;20968;42.696;23.360;2023-12-20T06:30:45;95312.81;;;1.01;81.32
34742;BME280;20968;42.696;23.360;2023-12-20T06:33:12;95315.75;;;1.10;81.41
34742;BME280;20968;42.696;23.360;2023-12-20T06:35:38;95318.63;;;0.99;80.65
34742;BME280;20968;42.696;23.360;2023-12-20T06:38:04;95311.16;;;1.07;80.31
34742;BME280;20968;42.696;23.360;2023-12-20T06:40:29;95305.84;;;1.00;80.03
34742;BME280;20968;42.696;23.360;2023-12-20T06:42:55;95309.19;;;1.07;80.77
34742;BME280;20968;42.696;23.360;2023-12-20T06:45:20;95304.91;;;1.10;80.34
34742;BME280;20968;42.696;23.360;2023-12-20T06:47:45;95302.47;;;1.15;80.55
34742;BME280;20968;42.696;23.360;2023-12-20T06:50:11;95301.72;;;1.15;80.48
34742;BME280;20968;42.696;23.360;2023-12-20T06:52:36;95297.88;;;1.12;80.58
34742;BME280;20968;42.696;23.360;2023-12-20T06:55:02;95292.56;;;1.28;80.16
34742;BME280;20968;42.696;23.360;2023-12-20T06:57:29;95292.00;;;1.37;80.59
34742;BME280;20968;42.696;23.360;2023-12-20T06:59:54;95295.69;;;1.46;80.19
34742;BME280;20968;42.696;23.360;2023-12-20T07:02:20;95294.41;;;1.31;80.10
34742;BME280;20968;42.696;23.360;2023-12-20T07:04:46;95280.41;;;1.36;80.58
34742;BME280;20968;42.696;23.360;2023-12-20T07:07:11;95285.69;;;1.43;80.88
34742;BME280;20968;42.696;23.360;2023-12-20T07:09:36;95287.84;;;1.52;80.35
34742;BME280;20968;42.696;23.360;2023-12-20T07:12:03;95285.91;;;1.33;79.87
34742;BME280;20968;42.696;23.360;2023-12-20T07:14:29;95275.66;;;1.40;80.27
34742;BME280;20968;42.696;23.360;2023-12-20T07:16:54;95280.19;;;1.47;80.46
34742;BME280;20968;42.696;23.360;2023-12-20T07:19:20;95275.25;;;1.61;80.50
34742;BME280;20968;42.696;23.360;2023-12-20T07:21:45;95274.69;;;1.69;80.32
34742;BME280;20968;42.696;23.360;2023-12-20T07:24:11;95271.56;;;1.71;79.43
34742;BME280;20968;42.696;23.360;2023-12-20T07:26:36;95270.88;;;1.67;80.02
34742;BME280;20968;42.696;23.360;2023-12-20T07:29:03;95269.59;;;1.71;80.00
34742;BME280;20968;42.696;23.360;2023-12-20T07:31:29;95265.47;;;1.83;80.52
34742;BME280;20968;42.696;23.360;2023-12-20T07:33:54;95263.47;;;1.87;79.36
34742;BME280;20968;42.696;23.360;2023-12-20T07:36:20;95270.91;;;1.83;80.27
34742;BME280;20968;42.696;23.360;2023-12-20T07:38:46;95264.28;;;1.84;80.45
34742;BME280;20968;42.696;23.360;2023-12-20T07:41:12;95262.97;;;1.92;80.01
34742;BME280;20968;42.696;23.360;2023-12-20T07:43:37;95259.78;;;1.97;80.49
34742;BME280;20968;42.696;23.360;2023-12-20T07:46:07;95261.78;;;1.93;80.60
34742;BME280;20968;42.696;23.360;2023-12-20T07:48:34;95261.63;;;2.00;80.24
34742;BME280;20968;42.696;23.360;2023-12-20T07:50:59;95262.97;;;1.92;79.98
34742;BME280;20968;42.696;23.360;2023-12-20T07:53:25;95264.22;;;1.87;80.28
34742;BME280;20968;42.696;23.360;2023-12-20T07:55:50;95246.47;;;1.83;80.56
34742;BME280;20968;42.696;23.360;2023-12-20T07:58:17;95254.50;;;1.90;80.41
34742;BME280;20968;42.696;23.360;2023-12-20T08:00:43;95244.75;;;1.92;80.21
34742;BME280;20968;42.696;23.360;2023-12-20T08:03:09;95257.81;;;1.97;80.20
34742;BME280;20968;42.696;23.360;2023-12-20T08:05:34;95254.53;;;1.70;81.26
34742;BME280;20968;42.696;23.360;2023-12-20T08:08:00;95257.25;;;1.86;81.28
34742;BME280;20968;42.696;23.360;2023-12-20T08:10:25;95253.13;;;1.98;80.68
34742;BME280;20968;42.696;23.360;2023-12-20T08:12:52;95247.91;;;2.07;80.81
34742;BME280;20968;42.696;23.360;2023-12-20T08:15:17;95249.97;;;2.19;80.19
34742;BME280;20968;42.696;23.360;2023-12-20T08:17:43;95240.25;;;2.02;80.82
34742;BME280;20968;42.696;23.360;2023-12-20T08:20:08;95234.41;;;2.03;80.80
34742;BME280;20968;42.696;23.360;2023-12-20T08:22:34;95223.50;;;1.87;81.30
34742;BME280;20968;42.696;23.360;2023-12-20T08:24:59;95230.94;;;2.03;81.86
34742;BME280;20968;42.696;23.360;2023-12-20T08:27:24;95234.06;;;2.17;81.45
34742;BME280;20968;42.696;23.360;2023-12-20T08:29:51;95231.69;;;2.03;81.24
34742;BME280;20968;42.696;23.360;2023-12-20T08:32:16;95225.66;;;1.96;82.34
34742;BME280;20968;42.696;23.360;2023-12-20T08:34:41;95217.38;;;2.03;82.09
34742;BME280;20968;42.696;23.360;2023-12-20T08:37:07;95220.25;;;2.12;82.25
34742;BME280;20968;42.696;23.360;2023-12-20T08:39:32;95218.41;;;2.25;81.52
34742;BME280;20968;42.696;23.360;2023-12-20T08:41:59;95224.19;;;2.27;81.96
34742;BME280;20968;42.696;23.360;2023-12-20T08:44:24;95215.50;;;2.31;81.42
34742;BME280;20968;42.696;23.360;2023-12-20T08:46:49;95208.56;;;2.30;81.56
34742;BME280;20968;42.696;23.360;2023-12-20T08:49:15;95194.47;;;2.20;81.66
34742;BME280;20968;42.696;23.360;2023-12-20T08:51:40;95194.13;;;2.02;82.39
34742;BME280;20968;42.696;23.360;2023-12-20T08:54:06;95199.03;;;2.07;82.62
34742;BME280;20968;42.696;23.360;2023-12-20T08:56:33;95203.28;;;2.24;82.65
34742;BME280;20968;42.696;23.360;2023-12-20T08:58:59;95196.25;;;2.26;82.46
34742;BME280;20968;42.696;23.360;2023-12-20T09:01:25;95190.53;;;2.21;82.36
34742;BME280;20968;42.696;23.360;2023-12-20T09:03:51;95183.00;;;2.12;82.78
34742;BME280;20968;42.696;23.360;2023-12-20T09:06:16;95168.69;;;2.28;82.42
34742;BME280;20968;42.696;23.360;2023-12-20T09:08:41;95157.81;;;2.28;82.16
34742;BME280;20968;42.696;23.360;2023-12-20T09:11:07;95158.91;;;2.30;82.05
34742;BME280;20968;42.696;23.360;2023-12-20T09:13:32;95140.84;;;2.24;83.02
34742;BME280;20968;42.696;23.360;2023-12-20T09:15:58;95134.56;;;2.42;82.40
34742;BME280;20968;42.696;23.360;2023-12-20T09:18:24;95127.88;;;2.59;82.29
34742;BME280;20968;42.696;23.360;2023-12-20T09:20:49;95125.16;;;2.59;81.72
34742;BME280;20968;42.696;23.360;2023-12-20T09:23:15;95115.97;;;2.69;81.56
34742;BME280;20968;42.696;23.360;2023-12-20T09:25:40;95112.72;;;2.74;81.32
34742;BME280;20968;42.696;23.360;2023-12-20T09:28:05;95113.16;;;2.73;80.92
34742;BME280;20968;42.696;23.360;2023-12-20T09:30:31;95108.06;;;2.75;81.67
34742;BME280;20968;42.696;23.360;2023-12-20T09:32:57;95106.97;;;2.72;81.88
34742;BME280;20968;42.696;23.360;2023-12-20T09:35:23;95099.28;;;2.83;81.75
34742;BME280;20968;42.696;23.360;2023-12-20T09:37:48;95091.84;;;2.71;81.66
34742;BME280;20968;42.696;23.360;2023-12-20T09:40:14;95087.75;;;2.79;81.81
34742;BME280;20968;42.696;23.360;2023-12-20T09:42:48;95086.66;;;2.77;81.74
34742;BME280;20968;42.696;23.360;2023-12-20T09:45:20;95075.16;;;2.85;81.33
34742;BME280;20968;42.696;23.360;2023-12-20T09:47:47;95073.22;;;2.98;81.66
34742;BME280;20968;42.696;23.360;2023-12-20T09:50:12;95072.47;;;2.98;81.37
34742;BME280;20968;42.696;23.360;2023-12-20T09:52:39;95070.94;;;2.97;81.63
34742;BME280;20968;42.696;23.360;2023-12-20T09:55:05;95067.16;;;3.07;81.96
34742;BME280;20968;42.696;23.360;2023-12-20T09:57:32;95052.59;;;3.13;81.50
34742;BME280;20968;42.696;23.360;2023-12-20T09:59:58;95062.25;;;3.02;80.96
34742;BME280;20968;42.696;23.360;2023-12-20T10:02:25;95062.59;;;3.04;81.42
34742;BME280;20968;42.696;23.360;2023-12-20T10:04:55;95053.69;;;3.03;81.60
34742;BME280;20968;42.696;23.360;2023-12-20T10:07:21;95049.56;;;3.11;81.24
34742;BME280;20968;42.696;23.360;2023-12-20T10:09:48;95052.72;;;3.22;80.95
34742;BME280;20968;42.696;23.360;2023-12-20T10:12:13;95040.19;;;3.37;80.23
34742;BME280;20968;42.696;23.360;2023-12-20T10:14:39;95042.59;;;3.35;81.10
34742;BME280;20968;42.696;23.360;2023-12-20T10:17:05;95020.59;;;3.42;80.68
34742;BME280;20968;42.696;23.360;2023-12-20T10:19:32;95027.56;;;3.43;80.18
34742;BME280;20968;42.696;23.360;2023-12-20T10:21:59;95024.09;;;3.42;80.19
34742;BME280;20968;42.696;23.360;2023-12-20T10:24:25;95015.50;;;3.44;80.15
34742;BME280;20968;42.696;23.360;2023-12-20T10:27:10;95012.66;;;3.47;81.00
34742;BME280;20968;42.696;23.360;2023-12-20T10:29:37;95014.97;;;3.49;80.59
34742;BME280;20968;42.696;23.360;2023-12-20T10:32:22;95001.88;;;3.56;80.41
34742;BME280;20968;42.696;23.360;2023-12-20T10:34:48;94992.19;;;3.68;80.68
34742;BME280;20968;42.696;23.360;2023-12-20T10:37:14;94992.72;;;3.75;80.36
34742;BME280;20968;42.696;23.360;2023-12-20T10:39:42;94998.13;;;3.87;79.92
34742;BME280;20968;42.696;23.360;2023-12-20T10:42:09;94998.44;;;3.89;78.42
34742;BME280;20968;42.696;23.360;2023-12-20T10:44:36;94989.00;;;3.69;79.13
34742;BME280;20968;42.696;23.360;2023-12-20T10:47:02;94984.78;;;3.68;79.82
34742;BME280;20968;42.696;23.360;2023-12-20T10:49:30;94979.22;;;3.72;79.69
34742;BME280;20968;42.696;23.360;2023-12-20T10:51:56;94972.16;;;3.74;79.79
34742;BME280;20968;42.696;23.360;2023-12-20T10:54:25;94972.78;;;3.66;80.68
34742;BME280;20968;42.696;23.360;2023-12-20T10:56:51;94959.63;;;3.77;80.68
34742;BME280;20968;42.696;23.360;2023-12-20T10:59:19;94963.94;;;3.86;80.31
34742;BME280;20968;42.696;23.360;2023-12-20T11:01:47;94960.28;;;4.02;79.72
34742;BME280;20968;42.696;23.360;2023-12-20T11:04:34;94943.66;;;3.87;80.35
34742;BME280;20968;42.696;23.360;2023-12-20T11:07:33;94947.78;;;3.92;80.06
34742;BME280;20968;42.696;23.360;2023-12-20T11:10:31;94934.19;;;3.92;79.91
34742;BME280;20968;42.696;23.360;2023-12-20T11:13:07;94936.34;;;3.97;80.08
34742;BME280;20968;42.696;23.360;2023-12-20T11:15:36;94939.03;;;4.09;79.64
34742;BME280;20968;42.696;23.360;2023-12-20T11:18:01;94927.75;;;3.98;79.21
34742;BME280;20968;42.696;23.360;2023-12-20T11:20:37;94923.78;;;4.12;80.39
34742;BME280;20968;42.696;23.360;2023-12-20T11:23:03;94912.53;;;4.10;80.25
34742;BME280;20968;42.696;23.360;2023-12-20T11:25:28;94906.66;;;4.33;80.31
34742;BME280;20968;42.696;23.360;2023-12-20T11:28:08;94894.03;;;4.48;79.66
34742;BME280;20968;42.696;23.360;2023-12-20T11:30:42;94898.53;;;4.72;79.16
34742;BME280;20968;42.696;23.360;2023-12-20T11:33:10;94883.72;;;4.73;79.91
34742;BME280;20968;42.696;23.360;2023-12-20T11:35:36;94881.41;;;5.02;78.91
34742;BME280;20968;42.696;23.360;2023-12-20T11:38:02;94874.13;;;4.99;78.16
34742;BME280;20968;42.696;23.360;2023-12-20T11:40:27;94867.50;;;5.18;77.17
34742;BME280;20968;42.696;23.360;2023-12-20T11:42:53;94861.28;;;5.08;76.74
34742;BME280;20968;42.696;23.360;2023-12-20T11:45:24;94864.88;;;4.96;77.39
34742;BME280;20968;42.696;23.360;2023-12-20T11:47:51;94864.63;;;4.73;77.70
34742;BME280;20968;42.696;23.360;2023-12-20T11:50:21;94856.38;;;4.55;78.10
34742;BME280;20968;42.696;23.360;2023-12-20T11:52:47;94846.63;;;4.45;78.95
34742;BME280;20968;42.696;23.360;2023-12-20T11:55:13;94842.53;;;4.19;79.44
34742;BME280;20968;42.696;23.360;2023-12-20T11:57:39;94832.38;;;4.11;80.40
34742;BME280;20968;42.696;23.360;2023-12-20T12:00:05;94836.22;;;4.01;80.06
34742;BME280;20968;42.696;23.360;2023-12-20T12:02:31;94820.00;;;3.97;80.47
34742;BME280;20968;42.696;23.360;2023-12-20T12:04:57;94821.47;;;3.89;80.84
34742;BME280;20968;42.696;23.360;2023-12-20T12:07:24;94815.78;;;3.75;80.97
34742;BME280;20968;42.696;23.360;2023-12-20T12:09:50;94807.56;;;3.66;81.75
34742;BME280;20968;42.696;23.360;2023-12-20T12:12:17;94806.53;;;3.73;81.62
34742;BME280;20968;42.696;23.360;2023-12-20T12:14:45;94799.31;;;3.57;82.17
34742;BME280;20968;42.696;23.360;2023-12-20T12:17:11;94804.31;;;3.59;82.49
34742;BME280;20968;42.696;23.360;2023-12-20T12:19:38;94794.06;;;3.63;82.34
34742;BME280;20968;42.696;23.360;2023-12-20T12:22:08;94789.19;;;3.58;82.84
34742;BME280;20968;42.696;23.360;2023-12-20T12:24:38;94781.22;;;3.63;82.60
34742;BME280;20968;42.696;23.360;2023-12-20T12:27:06;94779.50;;;3.78;82.87
34742;BME280;20968;42.696;23.360;2023-12-20T12:29:31;94784.75;;;3.94;82.64
34742;BME280;20968;42.696;23.360;2023-12-20T12:31:56;94786.88;;;3.99;82.20
34742;BME280;20968;42.696;23.360;2023-12-20T12:34:23;94786.50;;;4.09;82.03
34742;BME280;20968;42.696;23.360;2023-12-20T12:36:48;94781.41;;;4.20;81.70
34742;BME280;20968;42.696;23.360;2023-12-20T12:39:14;94784.84;;;4.12;82.29
34742;BME280;20968;42.696;23.360;2023-12-20T12:41:41;94796.22;;;4.19;82.23
34742;BME280;20968;42.696;23.360;2023-12-20T12:44:06;94785.06;;;4.26;81.67
34742;BME280;20968;42.696;23.360;2023-12-20T12:46:31;94779.69;;;4.05;81.47
34742;BME280;20968;42.696;23.360;2023-12-20T12:48:58;94768.19;;;4.10;82.15
34742;BME280;20968;42.696;23.360;2023-12-20T12:51:23;94769.25;;;3.82;82.38
34742;BME280;20968;42.696;23.360;2023-12-20T12:53:48;94771.00;;;3.76;83.18
34742;BME280;20968;42.696;23.360;2023-12-20T12:56:15;94766.94;;;3.72;82.47